createdAt,value
2023-04-23T00:02:47.352Z,10.20
2023-04-23T00:07:56.200Z,11.00
2023-04-23T00:13:04.675Z,10.40
2023-04-23T00:18:12.168Z,11.50
2023-04-23T00:23:19.520Z,13.50
2023-04-23T00:28:27.446Z,11.10
2023-04-23T00:33:35.233Z,11.30
2023-04-23T00:38:42.751Z,10.90
2023-04-23T00:43:53.363Z,10.80
2023-04-23T00:49:01.884Z,10.80
2023-04-23T00:54:10.384Z,11.70
2023-04-23T00:59:18.417Z,14.00
2023-04-23T01:04:30.004Z,11.50
2023-04-23T01:09:37.509Z,13.50
2023-04-23T01:14:45.707Z,11.30
2023-04-23T01:19:53.344Z,10.60
2023-04-23T01:25:01.471Z,10.10
2023-04-23T01:30:11.364Z,10.30
2023-04-23T01:35:19.062Z,9.50
2023-04-23T01:40:26.758Z,9.00
2023-04-23T01:45:35.441Z,9.00
2023-04-23T01:50:44.500Z,9.00
2023-04-23T01:55:53.456Z,8.40
2023-04-23T02:01:01.050Z,9.30
2023-04-23T02:06:09.372Z,9.00
2023-04-23T02:11:16.855Z,8.80
2023-04-23T02:16:25.156Z,8.60
2023-04-23T02:21:33.130Z,8.00
2023-04-23T02:26:40.952Z,8.60
2023-04-23T02:31:48.408Z,8.20
2023-04-23T02:36:56.491Z,8.70
2023-04-23T02:42:04.014Z,7.90
2023-04-23T02:47:11.830Z,7.80
2023-04-23T02:52:19.799Z,7.70
2023-04-23T02:57:27.645Z,7.70
2023-04-23T03:02:35.423Z,7.00
2023-04-23T03:07:43.924Z,7.70
2023-04-23T03:12:51.799Z,6.70
2023-04-23T03:17:59.881Z,6.70
2023-04-23T03:23:08.038Z,6.40
2023-04-23T03:28:16.422Z,6.50
2023-04-23T03:33:25.018Z,6.50
2023-04-23T03:38:32.849Z,6.00
2023-04-23T03:43:41.169Z,5.50
2023-04-23T03:49:12.134Z,6.30
2023-04-23T03:54:20.114Z,5.90
2023-04-23T03:59:43.462Z,6.00
2023-04-23T04:04:52.308Z,5.60
2023-04-23T04:10:00.216Z,5.70
2023-04-23T04:15:09.170Z,5.80
2023-04-23T04:20:17.272Z,6.60
2023-04-23T04:25:25.083Z,6.60
2023-04-23T04:30:32.405Z,5.20
2023-04-23T04:35:39.836Z,5.90
2023-04-23T04:40:49.345Z,5.40
2023-04-23T04:45:59.790Z,5.60
2023-04-23T04:51:08.495Z,5.30
2023-04-23T04:56:15.979Z,5.40
2023-04-23T05:01:25.062Z,5.20
2023-04-23T05:06:33.448Z,5.40
2023-04-23T05:11:41.867Z,6.00
2023-04-23T05:16:50.054Z,6.00
2023-04-23T05:21:59.113Z,6.10
2023-04-23T05:27:07.036Z,7.00
2023-04-23T05:32:15.257Z,7.70
2023-04-23T05:37:23.074Z,7.00
2023-04-23T05:42:30.876Z,7.30
2023-04-23T05:47:38.466Z,7.50
2023-04-23T05:52:46.456Z,7.10
2023-04-23T05:57:54.031Z,6.90
2023-04-23T06:03:01.659Z,7.10
2023-04-23T06:08:09.976Z,6.70
2023-04-23T06:13:18.408Z,6.20
2023-04-23T06:18:28.013Z,6.40
2023-04-23T06:23:37.357Z,6.20
2023-04-23T06:28:45.538Z,5.60
2023-04-23T06:34:05.844Z,5.50
2023-04-23T06:39:13.597Z,6.00
2023-04-23T06:44:21.393Z,6.00
2023-04-23T06:49:37.895Z,6.10
2023-04-23T06:54:45.890Z,5.80
2023-04-23T06:59:53.357Z,6.00
2023-04-23T07:05:02.215Z,5.30
2023-04-23T07:10:13.569Z,6.00
2023-04-23T07:15:22.901Z,5.70
2023-04-23T07:20:30.740Z,5.50
2023-04-23T07:25:39.891Z,5.90
2023-04-23T07:30:47.144Z,5.90
2023-04-23T07:35:54.524Z,6.20
2023-04-23T07:41:01.870Z,6.50
2023-04-23T07:46:10.184Z,6.00
2023-04-23T07:51:17.893Z,5.60
2023-04-23T07:56:26.462Z,5.10
2023-04-23T08:01:34.155Z,6.00
2023-04-23T08:06:42.212Z,5.20
2023-04-23T08:11:49.850Z,4.80
2023-04-23T08:16:57.250Z,5.20
2023-04-23T08:22:04.884Z,5.70
2023-04-23T08:27:12.438Z,5.00
2023-04-23T08:32:19.755Z,5.50
2023-04-23T08:37:31.326Z,5.20
2023-04-23T08:42:44.544Z,5.10
2023-04-23T08:47:52.493Z,4.70
2023-04-23T08:53:00.377Z,4.90
2023-04-23T08:58:08.728Z,5.00
2023-04-23T09:03:17.131Z,4.10
2023-04-23T09:08:25.438Z,3.90
2023-04-23T09:13:33.995Z,4.20
2023-04-23T09:18:41.604Z,4.00
2023-04-23T09:23:53.808Z,4.10
2023-04-23T09:29:01.093Z,3.70
2023-04-23T09:34:09.247Z,3.80
2023-04-23T09:39:20.720Z,4.00
2023-04-23T09:44:30.001Z,3.60
2023-04-23T09:49:46.894Z,3.90
2023-04-23T09:54:54.585Z,3.70
2023-04-23T10:00:15.344Z,3.60
2023-04-23T10:05:29.390Z,3.40
2023-04-23T10:16:22.251Z,3.50
2023-04-23T10:21:42.964Z,3.20
2023-04-23T10:27:03.207Z,3.80
2023-04-23T10:32:10.728Z,3.40
2023-04-23T10:37:19.851Z,3.20
2023-04-23T10:42:28.340Z,3.40
2023-04-23T10:47:35.898Z,3.20
2023-04-23T10:52:47.288Z,3.40
2023-04-23T10:58:04.370Z,3.40
2023-04-23T11:03:31.809Z,3.80
2023-04-23T11:08:53.476Z,3.30
2023-04-23T11:14:14.621Z,3.50
2023-04-23T11:19:22.420Z,3.50
2023-04-23T11:24:31.500Z,3.40
2023-04-23T11:29:41.499Z,3.40
2023-04-23T11:34:51.094Z,3.10
2023-04-23T11:39:59.556Z,2.80
2023-04-23T11:45:08.059Z,3.20
2023-04-23T11:50:21.518Z,3.10
2023-04-23T11:55:30.838Z,3.10
2023-04-23T12:00:38.166Z,2.90
2023-04-23T12:05:48.445Z,3.00
2023-04-23T12:10:57.115Z,2.90
2023-04-23T12:16:05.831Z,2.70
2023-04-23T12:21:14.133Z,3.10
2023-04-23T12:26:25.359Z,3.10
2023-04-23T12:31:33.662Z,2.70
2023-04-23T12:36:46.166Z,2.90
2023-04-23T12:41:54.828Z,2.90
2023-04-23T12:47:05.256Z,2.70
2023-04-23T12:52:14.146Z,2.90
2023-04-23T12:57:23.618Z,2.50
2023-04-23T13:02:31.996Z,2.80
2023-04-23T13:07:39.860Z,2.70
2023-04-23T13:12:47.537Z,2.70
2023-04-23T13:17:55.259Z,2.90
2023-04-23T13:23:03.533Z,2.80
2023-04-23T13:28:11.201Z,2.60
2023-04-23T13:33:19.635Z,2.50
2023-04-23T13:38:27.949Z,3.00
2023-04-23T13:43:35.807Z,2.60
2023-04-23T13:48:43.393Z,2.60
2023-04-23T13:53:51.156Z,2.60
2023-04-23T13:59:18.239Z,2.80
2023-04-23T14:04:27.736Z,2.60
2023-04-23T14:09:35.511Z,2.70
2023-04-23T14:14:43.478Z,2.60
2023-04-23T14:19:50.947Z,3.00
2023-04-23T14:25:06.887Z,2.70
2023-04-23T14:30:18.944Z,3.00
2023-04-23T14:35:36.035Z,2.90
2023-04-23T14:40:49.848Z,3.10
2023-04-23T14:45:57.190Z,2.90
2023-04-23T14:51:05.049Z,2.80
2023-04-23T14:56:12.706Z,2.90
2023-04-23T15:01:20.419Z,3.10
2023-04-23T15:06:28.404Z,3.10
2023-04-23T15:11:39.291Z,2.80
2023-04-23T15:16:49.276Z,3.00
2023-04-23T15:21:57.499Z,2.80
2023-04-23T15:27:05.070Z,2.90
2023-04-23T15:32:13.077Z,2.90
2023-04-23T15:37:21.554Z,2.60
2023-04-23T15:42:29.352Z,2.90
2023-04-23T15:47:40.717Z,3.00
2023-04-23T15:52:49.870Z,3.60
2023-04-23T15:57:59.445Z,2.90
2023-04-23T16:03:08.313Z,3.10
2023-04-23T16:08:17.306Z,3.20
2023-04-23T16:13:27.311Z,2.80
2023-04-23T16:18:34.886Z,3.00
2023-04-23T16:23:42.407Z,2.70
2023-04-23T16:28:52.415Z,2.90
2023-04-23T16:34:13.097Z,3.00
2023-04-23T16:39:21.016Z,3.00
2023-04-23T16:44:29.342Z,2.90
2023-04-23T16:49:36.964Z,3.00
2023-04-23T16:54:46.054Z,3.10
2023-04-23T16:59:54.490Z,3.30
2023-04-23T17:05:02.418Z,2.90
2023-04-23T17:10:12.788Z,3.00
2023-04-23T17:15:21.033Z,3.30
2023-04-23T17:20:29.441Z,3.30
2023-04-23T17:25:37.038Z,4.20
2023-04-23T17:30:45.818Z,4.10
2023-04-23T17:35:55.719Z,3.70
2023-04-23T17:41:03.824Z,3.40
2023-04-23T17:46:11.145Z,4.30
2023-04-23T17:51:18.644Z,5.10
2023-04-23T17:56:27.454Z,5.30
2023-04-23T18:01:35.047Z,5.70
2023-04-23T18:06:42.636Z,4.90
2023-04-23T18:11:50.002Z,3.90
2023-04-23T18:16:58.062Z,3.00
2023-04-23T18:22:05.629Z,3.20
2023-04-23T18:27:12.935Z,3.20
2023-04-23T18:32:31.250Z,3.70
2023-04-23T18:37:49.293Z,3.50
2023-04-23T18:42:56.847Z,4.00
2023-04-23T18:48:37.760Z,3.20
2023-04-23T18:53:45.132Z,2.80
2023-04-23T18:58:52.558Z,3.10
2023-04-23T19:04:00.459Z,4.00
2023-04-23T19:09:08.279Z,4.20
2023-04-23T19:14:16.197Z,5.50
2023-04-23T19:19:24.790Z,5.40
2023-04-23T19:24:33.269Z,4.40
2023-04-23T19:29:41.432Z,4.30
2023-04-23T19:34:48.956Z,4.30
2023-04-23T19:39:56.483Z,3.70
2023-04-23T19:45:04.294Z,3.70
2023-04-23T19:50:14.252Z,3.80
2023-04-23T19:55:27.711Z,4.00
2023-04-23T20:00:37.966Z,3.70
2023-04-23T20:05:46.583Z,3.50
2023-04-23T20:10:54.102Z,3.50
2023-04-23T20:16:01.631Z,3.50
2023-04-23T20:21:09.669Z,3.70
2023-04-23T20:26:17.169Z,3.70
2023-04-23T20:31:24.840Z,3.60
2023-04-23T20:36:33.808Z,3.60
2023-04-23T20:41:41.802Z,3.50
2023-04-23T20:46:49.867Z,3.20
2023-04-23T20:51:57.285Z,3.60
2023-04-23T20:57:05.094Z,3.60
2023-04-23T21:02:15.718Z,3.70
2023-04-23T21:07:23.601Z,3.40
2023-04-23T21:12:31.666Z,3.50
2023-04-23T21:17:39.032Z,3.70
2023-04-23T21:22:46.681Z,3.90
2023-04-23T21:27:54.743Z,3.90
2023-04-23T21:33:02.622Z,3.90
2023-04-23T21:38:10.434Z,3.70
2023-04-23T21:43:18.276Z,4.40
2023-04-23T21:48:25.691Z,4.50
2023-04-23T21:53:33.000Z,4.40
2023-04-23T21:58:40.584Z,7.90
2023-04-23T22:03:48.432Z,8.70
2023-04-23T22:08:56.609Z,6.70
2023-04-23T22:14:04.387Z,5.70
2023-04-23T22:19:12.544Z,5.20
2023-04-23T22:24:20.511Z,4.60
2023-04-23T22:29:28.080Z,4.90
2023-04-23T22:34:35.523Z,4.80
2023-04-23T22:39:43.265Z,4.60
2023-04-23T22:44:51.210Z,4.50
2023-04-23T22:49:59.323Z,4.50
2023-04-23T22:55:07.968Z,5.00
2023-04-23T23:00:17.568Z,4.50
2023-04-23T23:05:25.204Z,4.90
2023-04-23T23:10:32.924Z,5.20
2023-04-23T23:15:40.464Z,4.90
2023-04-23T23:20:48.078Z,5.00
2023-04-23T23:25:56.726Z,4.50
2023-04-23T23:31:05.749Z,5.00
2023-04-23T23:36:13.465Z,5.10
2023-04-23T23:41:21.679Z,5.50
2023-04-23T23:46:29.456Z,4.40
2023-04-23T23:51:36.922Z,4.90
2023-04-23T23:56:44.630Z,5.10
